sensor_id;sensor_type;location;lat;lon;timestamp;pressure;altitude;pressure_sealevel;temperature;humidity
44441;BME280;30146;52.268;20.944;2022-12-18T00:00:09;101702.71;;;-2.79;66.82
44441;BME280;30146;52.268;20.944;2022-12-18T00:02:44;101700.86;;;-2.76;67.12
44441;BME280;30146;52.268;20.944;2022-12-18T00:05:13;101701.69;;;-2.74;66.99
44441;BME280;30146;52.268;20.944;2022-12-18T00:07:41;101708.58;;;-2.73;67.03
44441;BME280;30146;52.268;20.944;2022-12-18T00:10:10;101711.60;;;-2.73;66.79
44441;BME280;30146;52.268;20.944;2022-12-18T00:12:44;101715.17;;;-2.75;66.86
44441;BME280;30146;52.268;20.944;2022-12-18T00:15:12;101721.48;;;-2.76;66.67
44441;BME280;30146;52.268;20.944;2022-12-18T00:17:41;101724.36;;;-2.75;66.80
44441;BME280;30146;52.268;20.944;2022-12-18T00:20:11;101721.06;;;-2.75;67.07
44441;BME280;30146;52.268;20.944;2022-12-18T00:22:39;101724.77;;;-2.74;67.00
44441;BME280;30146;52.268;20.944;2022-12-18T00:25:09;101729.85;;;-2.73;66.68
44441;BME280;30146;52.268;20.944;2022-12-18T00:27:37;101734.88;;;-2.73;66.87
44441;BME280;30146;52.268;20.944;2022-12-18T00:30:08;101733.56;;;-2.73;66.96
44441;BME280;30146;52.268;20.944;2022-12-18T00:32:36;101735.72;;;-2.73;67.03
44441;BME280;30146;52.268;20.944;2022-12-18T00:35:07;101742.21;;;-2.73;66.92
44441;BME280;30146;52.268;20.944;2022-12-18T00:37:36;101745.03;;;-2.72;67.16
44441;BME280;30146;52.268;20.944;2022-12-18T00:40:08;101748.85;;;-2.70;67.14
44441;BME280;30146;52.268;20.944;2022-12-18T00:42:37;101752.98;;;-2.65;67.17
44441;BME280;30146;52.268;20.944;2022-12-18T00:45:25;101757.25;;;-2.62;67.07
44441;BME280;30146;52.268;20.944;2022-12-18T00:47:55;101755.84;;;-2.60;67.31
44441;BME280;30146;52.268;20.944;2022-12-18T00:50:24;101761.15;;;-2.59;67.06
44441;BME280;30146;52.268;20.944;2022-12-18T00:52:53;101762.35;;;-2.58;66.90
44441;BME280;30146;52.268;20.944;2022-12-18T00:55:21;101761.95;;;-2.59;67.10
44441;BME280;30146;52.268;20.944;2022-12-18T00:57:51;101762.40;;;-2.59;66.98
44441;BME280;30146;52.268;20.944;2022-12-18T01:00:20;101769.14;;;-2.59;66.92
44441;BME280;30146;52.268;20.944;2022-12-18T01:02:49;101773.48;;;-2.59;67.06
44441;BME280;30146;52.268;20.944;2022-12-18T01:05:18;101775.81;;;-2.57;66.84
44441;BME280;30146;52.268;20.944;2022-12-18T01:07:47;101774.23;;;-2.56;66.87
44441;BME280;30146;52.268;20.944;2022-12-18T01:10:15;101776.02;;;-2.54;67.02
44441;BME280;30146;52.268;20.944;2022-12-18T01:12:44;101777.14;;;-2.52;67.14
44441;BME280;30146;52.268;20.944;2022-12-18T01:15:14;101776.45;;;-2.52;67.05
44441;BME280;30146;52.268;20.944;2022-12-18T01:17:43;101777.98;;;-2.52;66.93
44441;BME280;30146;52.268;20.944;2022-12-18T01:20:12;101782.00;;;-2.52;67.10
44441;BME280;30146;52.268;20.944;2022-12-18T01:22:41;101788.72;;;-2.54;66.60
44441;BME280;30146;52.268;20.944;2022-12-18T01:25:10;101789.34;;;-2.55;67.10
44441;BME280;30146;52.268;20.944;2022-12-18T01:27:38;101788.33;;;-2.55;66.86
44441;BME280;30146;52.268;20.944;2022-12-18T01:30:09;101789.89;;;-2.54;67.05
44441;BME280;30146;52.268;20.944;2022-12-18T01:32:38;101799.64;;;-2.51;67.18
44441;BME280;30146;52.268;20.944;2022-12-18T01:35:08;101805.88;;;-2.50;66.71
44441;BME280;30146;52.268;20.944;2022-12-18T01:37:36;101815.75;;;-2.48;66.99
44441;BME280;30146;52.268;20.944;2022-12-18T01:40:08;101818.73;;;-2.46;67.10
44441;BME280;30146;52.268;20.944;2022-12-18T01:42:37;101821.88;;;-2.44;66.71
44441;BME280;30146;52.268;20.944;2022-12-18T01:45:22;101828.61;;;-2.43;66.90
44441;BME280;30146;52.268;20.944;2022-12-18T01:47:53;101831.73;;;-2.42;67.04
44441;BME280;30146;52.268;20.944;2022-12-18T01:50:23;101834.87;;;-2.40;67.08
44441;BME280;30146;52.268;20.944;2022-12-18T01:52:56;101837.66;;;-2.38;66.75
44441;BME280;30146;52.268;20.944;2022-12-18T01:55:27;101832.42;;;-2.39;66.85
44441;BME280;30146;52.268;20.944;2022-12-18T01:57:59;101836.70;;;-2.40;66.57
44441;BME280;30146;52.268;20.944;2022-12-18T02:00:29;101838.86;;;-2.40;66.58
44441;BME280;30146;52.268;20.944;2022-12-18T02:02:58;101836.27;;;-2.41;66.71
44441;BME280;30146;52.268;20.944;2022-12-18T02:05:38;101843.34;;;-2.43;66.53
44441;BME280;30146;52.268;20.944;2022-12-18T02:08:13;101849.83;;;-2.44;66.79
44441;BME280;30146;52.268;20.944;2022-12-18T02:10:50;101850.98;;;-2.44;66.66
44441;BME280;30146;52.268;20.944;2022-12-18T02:13:29;101856.93;;;-2.45;66.45
44441;BME280;30146;52.268;20.944;2022-12-18T02:16:04;101862.30;;;-2.45;66.77
44441;BME280;30146;52.268;20.944;2022-12-18T02:18:38;101867.63;;;-2.46;66.65
44441;BME280;30146;52.268;20.944;2022-12-18T02:21:15;101873.59;;;-2.46;66.65
44441;BME280;30146;52.268;20.944;2022-12-18T02:23:59;101875.54;;;-2.47;66.52
44441;BME280;30146;52.268;20.944;2022-12-18T02:26:36;101881.99;;;-2.48;66.43
44441;BME280;30146;52.268;20.944;2022-12-18T02:29:10;101881.55;;;-2.48;66.62
44441;BME280;30146;52.268;20.944;2022-12-18T02:31:42;101875.17;;;-2.48;66.72
44441;BME280;30146;52.268;20.944;2022-12-18T02:34:13;101881.63;;;-2.49;66.50
44441;BME280;30146;52.268;20.944;2022-12-18T02:36:44;101883.04;;;-2.51;66.38
44441;BME280;30146;52.268;20.944;2022-12-18T02:39:14;101882.45;;;-2.54;66.69
44441;BME280;30146;52.268;20.944;2022-12-18T02:41:54;101888.90;;;-2.56;66.57
44441;BME280;30146;52.268;20.944;2022-12-18T02:44:22;101893.59;;;-2.55;66.76
44441;BME280;30146;52.268;20.944;2022-12-18T02:46:52;101893.00;;;-2.57;66.50
44441;BME280;30146;52.268;20.944;2022-12-18T02:49:29;101898.95;;;-2.60;66.56
44441;BME280;30146;52.268;20.944;2022-12-18T02:52:07;101900.67;;;-2.64;66.47
44441;BME280;30146;52.268;20.944;2022-12-18T02:54:51;101904.39;;;-2.66;66.45
44441;BME280;30146;52.268;20.944;2022-12-18T02:57:32;101913.16;;;-2.68;66.43
44441;BME280;30146;52.268;20.944;2022-12-18T03:00:05;101918.27;;;-2.69;66.34
44441;BME280;30146;52.268;20.944;2022-12-18T03:02:38;101920.16;;;-2.68;66.46
44441;BME280;30146;52.268;20.944;2022-12-18T03:05:14;101927.91;;;-2.67;66.23
44441;BME280;30146;52.268;20.944;2022-12-18T03:07:47;101935.78;;;-2.70;66.20
44441;BME280;30146;52.268;20.944;2022-12-18T03:10:23;101940.30;;;-2.73;66.58
44441;BME280;30146;52.268;20.944;2022-12-18T03:12:56;101943.97;;;-2.73;66.38
44441;BME280;30146;52.268;20.944;2022-12-18T03:15:29;101950.82;;;-2.73;66.43
44441;BME280;30146;52.268;20.944;2022-12-18T03:18:08;101949.95;;;-2.73;66.53
44441;BME280;30146;52.268;20.944;2022-12-18T03:20:40;101952.16;;;-2.75;66.43
44441;BME280;30146;52.268;20.944;2022-12-18T03:23:14;101954.56;;;-2.77;66.34
44441;BME280;30146;52.268;20.944;2022-12-18T03:25:47;101958.05;;;-2.77;66.52
44441;BME280;30146;52.268;20.944;2022-12-18T03:28:20;101960.48;;;-2.76;66.59
44441;BME280;30146;52.268;20.944;2022-12-18T03:30:52;101965.86;;;-2.75;66.35
44441;BME280;30146;52.268;20.944;2022-12-18T03:33:28;101965.89;;;-2.78;66.49
44441;BME280;30146;52.268;20.944;2022-12-18T03:35:58;101971.83;;;-2.78;66.62
44441;BME280;30146;52.268;20.944;2022-12-18T03:38:26;101974.71;;;-2.78;66.63
44441;BME280;30146;52.268;20.944;2022-12-18T03:40:59;101976.92;;;-2.78;66.41
44441;BME280;30146;52.268;20.944;2022-12-18T03:43:42;101978.54;;;-2.76;66.71
44441;BME280;30146;52.268;20.944;2022-12-18T03:46:17;101978.09;;;-2.75;66.60
44441;BME280;30146;52.268;20.944;2022-12-18T03:48:52;101982.16;;;-2.75;66.49
44441;BME280;30146;52.268;20.944;2022-12-18T03:51:26;101982.85;;;-2.74;66.31
44441;BME280;30146;52.268;20.944;2022-12-18T03:53:59;101985.95;;;-2.76;66.31
44441;BME280;30146;52.268;20.944;2022-12-18T03:56:36;101987.88;;;-2.76;66.10
44441;BME280;30146;52.268;20.944;2022-12-18T03:59:09;101988.53;;;-2.77;66.35
44441;BME280;30146;52.268;20.944;2022-12-18T04:01:40;101992.83;;;-2.75;66.28
44441;BME280;30146;52.268;20.944;2022-12-18T04:04:13;101996.59;;;-2.74;66.64
44441;BME280;30146;52.268;20.944;2022-12-18T04:06:44;101996.14;;;-2.73;66.26
44441;BME280;30146;52.268;20.944;2022-12-18T04:09:14;102000.41;;;-2.72;66.51
44441;BME280;30146;52.268;20.944;2022-12-18T04:11:46;101998.40;;;-2.70;66.55
44441;BME280;30146;52.268;20.944;2022-12-18T04:14:16;102005.06;;;-2.67;66.52
44441;BME280;30146;52.268;20.944;2022-12-18T04:16:47;102011.86;;;-2.66;66.41
44441;BME280;30146;52.268;20.944;2022-12-18T04:19:16;102019.00;;;-2.67;66.33
44441;BME280;30146;52.268;20.944;2022-12-18T04:21:45;102025.10;;;-2.68;66.44
44441;BME280;30146;52.268;20.944;2022-12-18T04:24:14;102029.14;;;-2.68;66.38
44441;BME280;30146;52.268;20.944;2022-12-18T04:26:49;102034.17;;;-2.66;66.27
44441;BME280;30146;52.268;20.944;2022-12-18T04:29:22;102038.76;;;-2.65;66.30
44441;BME280;30146;52.268;20.944;2022-12-18T04:31:51;102040.22;;;-2.63;66.39
44441;BME280;30146;52.268;20.944;2022-12-18T04:34:20;102040.60;;;-2.60;66.65
44441;BME280;30146;52.268;20.944;2022-12-18T04:36:51;102042.30;;;-2.57;66.45
44441;BME280;30146;52.268;20.944;2022-12-18T04:39:21;102040.86;;;-2.56;66.21
44441;BME280;30146;52.268;20.944;2022-12-18T04:41:50;102046.70;;;-2.57;66.29
44441;BME280;30146;52.268;20.944;2022-12-18T04:44:18;102049.77;;;-2.58;66.19
44441;BME280;30146;52.268;20.944;2022-12-18T04:46:47;102055.48;;;-2.58;66.04
44441;BME280;30146;52.268;20.944;2022-12-18T04:49:15;102055.70;;;-2.59;66.09
44441;BME280;30146;52.268;20.944;2022-12-18T04:51:44;102053.95;;;-2.59;65.95
44441;BME280;30146;52.268;20.944;2022-12-18T04:54:12;102054.55;;;-2.59;66.35
44441;BME280;30146;52.268;20.944;2022-12-18T04:56:41;102064.23;;;-2.62;65.74
44441;BME280;30146;52.268;20.944;2022-12-18T04:59:09;102062.76;;;-2.68;65.72
44441;BME280;30146;52.268;20.944;2022-12-18T05:01:38;102071.15;;;-2.75;65.57
44441;BME280;30146;52.268;20.944;2022-12-18T05:04:07;102071.20;;;-2.84;65.46
44441;BME280;30146;52.268;20.944;2022-12-18T05:06:36;102077.98;;;-2.90;65.66
44441;BME280;30146;52.268;20.944;2022-12-18T05:09:04;102080.51;;;-2.96;65.76
44441;BME280;30146;52.268;20.944;2022-12-18T05:11:33;102084.44;;;-3.00;65.94
44441;BME280;30146;52.268;20.944;2022-12-18T05:14:01;102092.39;;;-3.05;65.62
44441;BME280;30146;52.268;20.944;2022-12-18T05:16:30;102093.87;;;-3.10;65.59
44441;BME280;30146;52.268;20.944;2022-12-18T05:18:58;102099.63;;;-3.14;65.74
44441;BME280;30146;52.268;20.944;2022-12-18T05:21:27;102100.10;;;-3.16;65.59
44441;BME280;30146;52.268;20.944;2022-12-18T05:23:55;102102.42;;;-3.19;65.74
44441;BME280;30146;52.268;20.944;2022-12-18T05:26:24;102109.46;;;-3.21;65.88
44441;BME280;30146;52.268;20.944;2022-12-18T05:28:52;102111.98;;;-3.23;65.82
44441;BME280;30146;52.268;20.944;2022-12-18T05:31:20;102115.20;;;-3.24;65.96
44441;BME280;30146;52.268;20.944;2022-12-18T05:33:49;102120.63;;;-3.26;66.03
44441;BME280;30146;52.268;20.944;2022-12-18T05:36:17;102124.16;;;-3.28;65.92
44441;BME280;30146;52.268;20.944;2022-12-18T05:38:46;102129.41;;;-3.32;66.06
44441;BME280;30146;52.268;20.944;2022-12-18T05:41:14;102132.86;;;-3.35;66.00
44441;BME280;30146;52.268;20.944;2022-12-18T05:43:42;102137.77;;;-3.36;66.21
44441;BME280;30146;52.268;20.944;2022-12-18T05:46:14;102138.67;;;-3.38;66.39
44441;BME280;30146;52.268;20.944;2022-12-18T05:48:44;102139.08;;;-3.37;66.18
44441;BME280;30146;52.268;20.944;2022-12-18T05:51:15;102142.86;;;-3.37;66.35
44441;BME280;30146;52.268;20.944;2022-12-18T05:53:44;102147.27;;;-3.39;66.39
44441;BME280;30146;52.268;20.944;2022-12-18T05:56:15;102153.00;;;-3.38;66.36
44441;BME280;30146;52.268;20.944;2022-12-18T05:58:44;102148.58;;;-3.37;66.42
44441;BME280;30146;52.268;20.944;2022-12-18T06:01:14;102147.16;;;-3.36;66.62
44441;BME280;30146;52.268;20.944;2022-12-18T06:03:44;102148.35;;;-3.33;66.68
44441;BME280;30146;52.268;20.944;2022-12-18T06:06:18;102151.60;;;-3.31;66.76
44441;BME280;30146;52.268;20.944;2022-12-18T06:08:47;102151.31;;;-3.30;66.64
44441;BME280;30146;52.268;20.944;2022-12-18T06:11:19;102158.09;;;-3.31;66.49
44441;BME280;30146;52.268;20.944;2022-12-18T06:13:50;102160.09;;;-3.33;66.58
44441;BME280;30146;52.268;20.944;2022-12-18T06:16:26;102164.39;;;-3.34;66.60
44441;BME280;30146;52.268;20.944;2022-12-18T06:18:56;102170.52;;;-3.32;66.69
44441;BME280;30146;52.268;20.944;2022-12-18T06:21:24;102174.15;;;-3.31;67.06
44441;BME280;30146;52.268;20.944;2022-12-18T06:23:53;102180.23;;;-3.30;67.22
44441;BME280;30146;52.268;20.944;2022-12-18T06:26:22;102182.80;;;-3.29;66.99
44441;BME280;30146;52.268;20.944;2022-12-18T06:28:55;102192.34;;;-3.29;67.22
44441;BME280;30146;52.268;20.944;2022-12-18T06:31:24;102203.42;;;-3.28;67.30
44441;BME280;30146;52.268;20.944;2022-12-18T06:33:53;102203.86;;;-3.24;67.49
44441;BME280;30146;52.268;20.944;2022-12-18T06:36:22;102207.46;;;-3.21;67.44
44441;BME280;30146;52.268;20.944;2022-12-18T06:38:50;102215.06;;;-3.18;67.49
44441;BME280;30146;52.268;20.944;2022-12-18T06:41:20;102217.11;;;-3.15;67.60
44441;BME280;30146;52.268;20.944;2022-12-18T06:43:49;102220.92;;;-3.14;67.47
44441;BME280;30146;52.268;20.944;2022-12-18T06:46:17;102220.40;;;-3.14;67.55
44441;BME280;30146;52.268;20.944;2022-12-18T06:48:49;102227.75;;;-3.12;67.33
44441;BME280;30146;52.268;20.944;2022-12-18T06:51:19;102234.21;;;-3.10;67.50
44441;BME280;30146;52.268;20.944;2022-12-18T06:53:48;102232.15;;;-3.09;67.49
44441;BME280;30146;52.268;20.944;2022-12-18T06:56:17;102236.69;;;-3.08;67.67
44441;BME280;30146;52.268;20.944;2022-12-18T06:58:45;102244.73;;;-3.04;67.69
44441;BME280;30146;52.268;20.944;2022-12-18T07:01:14;102251.64;;;-3.01;67.69
44441;BME280;30146;52.268;20.944;2022-12-18T07:03:43;102254.90;;;-3.00;67.54
44441;BME280;30146;52.268;20.944;2022-12-18T07:06:17;102254.09;;;-3.00;67.41
44441;BME280;30146;52.268;20.944;2022-12-18T07:08:46;102254.35;;;-2.99;67.45
44441;BME280;30146;52.268;20.944;2022-12-18T07:11:17;102254.52;;;-2.96;67.52
44441;BME280;30146;52.268;20.944;2022-12-18T07:13:46;102262.77;;;-2.94;67.63
44441;BME280;30146;52.268;20.944;2022-12-18T07:16:17;102266.19;;;-2.90;67.75
44441;BME280;30146;52.268;20.944;2022-12-18T07:18:53;102269.84;;;-2.86;67.72
44441;BME280;30146;52.268;20.944;2022-12-18T07:21:22;102271.48;;;-2.82;67.76
44441;BME280;30146;52.268;20.944;2022-12-18T07:23:51;102276.70;;;-2.77;67.77
44441;BME280;30146;52.268;20.944;2022-12-18T07:26:21;102274.91;;;-2.72;67.80
44441;BME280;30146;52.268;20.944;2022-12-18T07:28:50;102283.48;;;-2.67;67.70
44441;BME280;30146;52.268;20.944;2022-12-18T07:31:20;102282.30;;;-2.63;67.56
44441;BME280;30146;52.268;20.944;2022-12-18T07:33:50;102282.05;;;-2.58;67.77
44441;BME280;30146;52.268;20.944;2022-12-18T07:36:19;102284.02;;;-2.54;67.83
44441;BME280;30146;52.268;20.944;2022-12-18T07:38:48;102289.42;;;-2.50;67.72
44441;BME280;30146;52.268;20.944;2022-12-18T07:41:17;102292.20;;;-2.47;67.68
44441;BME280;30146;52.268;20.944;2022-12-18T07:43:46;102294.59;;;-2.44;67.50
44441;BME280;30146;52.268;20.944;2022-12-18T07:46:15;102299.80;;;-2.41;67.43
44441;BME280;30146;52.268;20.944;2022-12-18T07:48:45;102308.21;;;-2.41;67.27
44441;BME280;30146;52.268;20.944;2022-12-18T07:51:18;102307.71;;;-2.41;67.21
44441;BME280;30146;52.268;20.944;2022-12-18T07:53:47;102312.79;;;-2.40;67.29
44441;BME280;30146;52.268;20.944;2022-12-18T07:56:20;102320.64;;;-2.40;67.03
44441;BME280;30146;52.268;20.944;2022-12-18T07:58:59;102326.16;;;-2.38;67.13
44441;BME280;30146;52.268;20.944;2022-12-18T08:01:28;102333.55;;;-2.36;67.48
44441;BME280;30146;52.268;20.944;2022-12-18T08:03:57;102335.52;;;-2.32;67.63
44441;BME280;30146;52.268;20.944;2022-12-18T08:06:26;102337.99;;;-2.28;67.48
44441;BME280;30146;52.268;20.944;2022-12-18T08:08:55;102341.53;;;-2.25;67.17
44441;BME280;30146;52.268;20.944;2022-12-18T08:11:25;102345.55;;;-2.23;67.29
44441;BME280;30146;52.268;20.944;2022-12-18T08:13:54;102351.23;;;-2.21;67.06
44441;BME280;30146;52.268;20.944;2022-12-18T08:16:23;102347.25;;;-2.18;67.28
44441;BME280;30146;52.268;20.944;2022-12-18T08:18:52;102347.45;;;-2.16;67.44
44441;BME280;30146;52.268;20.944;2022-12-18T08:21:22;102344.80;;;-2.13;67.44
44441;BME280;30146;52.268;20.944;2022-12-18T08:23:52;102351.08;;;-2.09;67.37
44441;BME280;30146;52.268;20.944;2022-12-18T08:26:21;102356.62;;;-2.07;67.15
44441;BME280;30146;52.268;20.944;2022-12-18T08:28:50;102364.66;;;-2.05;67.26
44441;BME280;30146;52.268;20.944;2022-12-18T08:31:19;102372.33;;;-2.03;67.15
44441;BME280;30146;52.268;20.944;2022-12-18T08:33:50;102374.59;;;-2.02;67.11
44441;BME280;30146;52.268;20.944;2022-12-18T08:36:19;102381.97;;;-2.02;66.93
44441;BME280;30146;52.268;20.944;2022-12-18T08:38:48;102387.18;;;-2.02;66.70
44441;BME280;30146;52.268;20.944;2022-12-18T08:41:18;102393.38;;;-2.00;66.96
44441;BME280;30146;52.268;20.944;2022-12-18T08:43:47;102389.63;;;-1.98;66.81
44441;BME280;30146;52.268;20.944;2022-12-18T08:46:35;102388.70;;;-1.95;67.00
44441;BME280;30146;52.268;20.944;2022-12-18T08:49:05;102386.08;;;-1.92;67.23
44441;BME280;30146;52.268;20.944;2022-12-18T08:51:34;102389.78;;;-1.89;66.76
44441;BME280;30146;52.268;20.944;2022-12-18T08:54:03;102394.91;;;-1.90;66.56
44441;BME280;30146;52.268;20.944;2022-12-18T08:56:34;102397.29;;;-1.90;66.60
44441;BME280;30146;52.268;20.944;2022-12-18T08:59:03;102399.30;;;-1.88;66.69
44441;BME280;30146;52.268;20.944;2022-12-18T09:01:32;102401.64;;;-1.87;66.63
44441;BME280;30146;52.268;20.944;2022-12-18T09:04:01;102398.24;;;-1.86;66.50
44441;BME280;30146;52.268;20.944;2022-12-18T09:06:31;102395.37;;;-1.84;66.44
44441;BME280;30146;52.268;20.944;2022-12-18T09:09:00;102401.93;;;-1.81;66.49
44441;BME280;30146;52.268;20.944;2022-12-18T09:11:30;102406.80;;;-1.77;66.80
44441;BME280;30146;52.268;20.944;2022-12-18T09:14:00;102412.65;;;-1.72;66.79
44441;BME280;30146;52.268;20.944;2022-12-18T09:16:30;102410.78;;;-1.68;66.75
44441;BME280;30146;52.268;20.944;2022-12-18T09:19:02;102411.77;;;-1.66;66.46
44441;BME280;30146;52.268;20.944;2022-12-18T09:21:34;102418.05;;;-1.63;66.53
44441;BME280;30146;52.268;20.944;2022-12-18T09:24:06;102420.60;;;-1.63;66.16
44441;BME280;30146;52.268;20.944;2022-12-18T09:26:36;102421.27;;;-1.62;66.18
44441;BME280;30146;52.268;20.944;2022-12-18T09:29:06;102421.30;;;-1.60;66.15
44441;BME280;30146;52.268;20.944;2022-12-18T09:31:35;102416.95;;;-1.55;66.36
44441;BME280;30146;52.268;20.944;2022-12-18T09:34:04;102413.17;;;-1.47;66.59
44441;BME280;30146;52.268;20.944;2022-12-18T09:36:33;102413.96;;;-1.38;66.53
44441;BME280;30146;52.268;20.944;2022-12-18T09:39:02;102415.31;;;-1.33;66.26
44441;BME280;30146;52.268;20.944;2022-12-18T09:41:43;102413.80;;;-1.29;66.23
44441;BME280;30146;52.268;20.944;2022-12-18T09:44:25;102411.63;;;-1.24;66.10
44441;BME280;30146;52.268;20.944;2022-12-18T09:47:09;102410.98;;;-1.21;66.21
44441;BME280;30146;52.268;20.944;2022-12-18T09:49:44;102420.62;;;-1.18;66.03
44441;BME280;30146;52.268;20.944;2022-12-18T09:52:17;102422.80;;;-1.16;66.23
44441;BME280;30146;52.268;20.944;2022-12-18T09:54:48;102428.91;;;-1.14;65.94
44441;BME280;30146;52.268;20.944;2022-12-18T09:57:20;102431.23;;;-1.15;65.92
44441;BME280;30146;52.268;20.944;2022-12-18T09:59:54;102426.08;;;-1.14;65.90
44441;BME280;30146;52.268;20.944;2022-12-18T10:02:24;102424.45;;;-1.18;65.60
44441;BME280;30146;52.268;20.944;2022-12-18T10:05:05;102423.62;;;-1.21;65.58
44441;BME280;30146;52.268;20.944;2022-12-18T10:07:42;102432.48;;;-1.21;65.38
44441;BME280;30146;52.268;20.944;2022-12-18T10:10:21;102436.90;;;-1.22;65.42
44441;BME280;30146;52.268;20.944;2022-12-18T10:12:56;102441.85;;;-1.24;65.43
44441;BME280;30146;52.268;20.944;2022-12-18T10:15:34;102449.98;;;-1.23;65.51
44441;BME280;30146;52.268;20.944;2022-12-18T10:18:14;102449.67;;;-1.22;65.42
44441;BME280;30146;52.268;20.944;2022-12-18T10:20:51;102450.75;;;-1.21;65.40
44441;BME280;30146;52.268;20.944;2022-12-18T10:23:25;102451.29;;;-1.21;65.56
44441;BME280;30146;52.268;20.944;2022-12-18T10:26:02;102448.54;;;-1.21;65.72
44441;BME280;30146;52.268;20.944;2022-12-18T10:28:33;102453.33;;;-1.23;65.41
44441;BME280;30146;52.268;20.944;2022-12-18T10:31:10;102445.08;;;-1.23;65.56
44441;BME280;30146;52.268;20.944;2022-12-18T10:33:42;102440.23;;;-1.23;65.35
44441;BME280;30146;52.268;20.944;2022-12-18T10:36:11;102444.61;;;-1.23;65.40
44441;BME280;30146;52.268;20.944;2022-12-18T10:38:41;102439.38;;;-1.23;65.47
44441;BME280;30146;52.268;20.944;2022-12-18T10:41:24;102443.58;;;-1.23;65.54
44441;BME280;30146;52.268;20.944;2022-12-18T10:44:12;102443.93;;;-1.23;65.41
44441;BME280;30146;52.268;20.944;2022-12-18T10:46:43;102442.15;;;-1.24;65.09
44441;BME280;30146;52.268;20.944;2022-12-18T10:49:27;102437.95;;;-1.24;65.14
44441;BME280;30146;52.268;20.944;2022-12-18T10:52:15;102431.74;;;-1.22;65.04
44441;BME280;30146;52.268;20.944;2022-12-18T10:54:50;102431.85;;;-1.21;64.96
44441;BME280;30146;52.268;20.944;2022-12-18T10:57:31;102436.66;;;-1.19;65.18
44441;BME280;30146;52.268;20.944;2022-12-18T11:00:18;102446.12;;;-1.13;65.51
44441;BME280;30146;52.268;20.944;2022-12-18T11:02:48;102447.52;;;-1.05;65.67
44441;BME280;30146;52.268;20.944;2022-12-18T11:05:29;102445.29;;;-0.99;65.53
44441;BME280;30146;52.268;20.944;2022-12-18T11:07:59;102444.91;;;-0.95;65.19
44441;BME280;30146;52.268;20.944;2022-12-18T11:10:31;102448.79;;;-0.90;65.22
44441;BME280;30146;52.268;20.944;2022-12-18T11:13:17;102447.13;;;-0.87;65.00
44441;BME280;30146;52.268;20.944;2022-12-18T11:15:46;102443.41;;;-0.85;64.84
44441;BME280;30146;52.268;20.944;2022-12-18T11:18:19;102438.27;;;-0.82;65.24
44441;BME280;30146;52.268;20.944;2022-12-18T11:20:53;102437.65;;;-0.81;65.04
44441;BME280;30146;52.268;20.944;2022-12-18T11:23:27;102446.25;;;-0.83;64.63
44441;BME280;30146;52.268;20.944;2022-12-18T11:25:57;102445.71;;;-0.84;64.85
44441;BME280;30146;52.268;20.944;2022-12-18T11:28:40;102447.55;;;-0.84;64.85
44441;BME280;30146;52.268;20.944;2022-12-18T11:31:28;102449.30;;;-0.83;64.99
44441;BME280;30146;52.268;20.944;2022-12-18T11:34:05;102458.95;;;-0.82;64.69
44441;BME280;30146;52.268;20.944;2022-12-18T11:36:59;102456.41;;;-0.82;64.79
44441;BME280;30146;52.268;20.944;2022-12-18T11:39:34;102451.56;;;-0.82;64.69
44441;BME280;30146;52.268;20.944;2022-12-18T11:42:04;102449.32;;;-0.82;64.71
44441;BME280;30146;52.268;20.944;2022-12-18T11:44:45;102449.51;;;-0.82;64.63
44441;BME280;30146;52.268;20.944;2022-12-18T11:47:23;102453.32;;;-0.80;64.89
44441;BME280;30146;52.268;20.944;2022-12-18T11:49:56;102453.43;;;-0.79;64.70
44441;BME280;30146;52.268;20.944;2022-12-18T11:52:33;102456.08;;;-0.80;64.63
44441;BME280;30146;52.268;20.944;2022-12-18T11:55:12;102456.05;;;-0.80;64.74
44441;BME280;30146;52.268;20.944;2022-12-18T11:57:50;102462.23;;;-0.80;64.51
44441;BME280;30146;52.268;20.944;2022-12-18T12:00:23;102461.55;;;-0.78;64.79
44441;BME280;30146;52.268;20.944;2022-12-18T12:03:18;102465.61;;;-0.75;64.73
44441;BME280;30146;52.268;20.944;2022-12-18T12:06:03;102467.91;;;-0.71;64.60
44441;BME280;30146;52.268;20.944;2022-12-18T12:08:44;102465.77;;;-0.68;64.62
44441;BME280;30146;52.268;20.944;2022-12-18T12:11:22;102459.48;;;-0.65;64.99
44441;BME280;30146;52.268;20.944;2022-12-18T12:14:15;102465.13;;;-0.61;64.80
44441;BME280;30146;52.268;20.944;2022-12-18T12:16:53;102464.93;;;-0.56;65.07
44441;BME280;30146;52.268;20.944;2022-12-18T12:19:36;102451.57;;;-0.52;64.75
44441;BME280;30146;52.268;20.944;2022-12-18T12:22:13;102453.41;;;-0.50;64.65
44441;BME280;30146;52.268;20.944;2022-12-18T12:24:53;102462.88;;;-0.50;64.49
44441;BME280;30146;52.268;20.944;2022-12-18T12:27:33;102470.80;;;-0.52;64.20
44441;BME280;30146;52.268;20.944;2022-12-18T12:30:10;102470.33;;;-0.55;64.27
44441;BME280;30146;52.268;20.944;2022-12-18T12:32:45;102476.20;;;-0.58;64.05
44441;BME280;30146;52.268;20.944;2022-12-18T12:35:27;102484.31;;;-0.62;63.91
44441;BME280;30146;52.268;20.944;2022-12-18T12:38:06;102488.84;;;-0.67;64.18
44441;BME280;30146;52.268;20.944;2022-12-18T12:40:45;102490.27;;;-0.73;64.12
44441;BME280;30146;52.268;20.944;2022-12-18T12:43:31;102493.29;;;-0.78;64.21
44441;BME280;30146;52.268;20.944;2022-12-18T12:46:05;102494.93;;;-0.79;64.34
44441;BME280;30146;52.268;20.944;2022-12-18T12:48:43;102488.83;;;-0.80;64.38
44441;BME280;30146;52.268;20.944;2022-12-18T12:51:19;102491.90;;;-0.81;64.15
44441;BME280;30146;52.268;20.944;2022-12-18T12:53:49;102492.23;;;-0.83;64.07
44441;BME280;30146;52.268;20.944;2022-12-18T12:56:20;102500.45;;;-0.83;64.32
44441;BME280;30146;52.268;20.944;2022-12-18T12:59:02;102508.73;;;-0.85;64.23
44441;BME280;30146;52.268;20.944;2022-12-18T13:01:36;102519.41;;;-0.86;64.52
44441;BME280;30146;52.268;20.944;2022-12-18T13:04:17;102527.47;;;-0.86;64.65
44441;BME280;30146;52.268;20.944;2022-12-18T13:06:56;102528.66;;;-0.83;64.67